createdAt,value
2022-08-04T00:02:04.645Z,72.20
2022-08-04T00:04:59.259Z,73.00
2022-08-04T00:07:54.997Z,73.10
2022-08-04T00:10:49.709Z,73.40
2022-08-04T00:16:22.339Z,74.80
2022-08-04T00:19:17.529Z,74.60
2022-08-04T00:22:11.577Z,74.70
2022-08-04T00:25:05.265Z,74.90
2022-08-04T00:30:35.762Z,75.50
2022-08-04T00:33:30.751Z,75.50
2022-08-04T00:36:22.170Z,75.60
2022-08-04T00:39:15.771Z,75.20
2022-08-04T00:42:37.797Z,75.40
2022-08-04T00:46:15.151Z,75.30
2022-08-04T00:49:21.021Z,75.70
2022-08-04T00:52:32.750Z,75.90
2022-08-04T00:56:03.211Z,76.20
2022-08-04T00:59:10.305Z,76.40
2022-08-04T01:02:11.596Z,76.70
2022-08-04T01:05:07.639Z,77.00
2022-08-04T01:10:50.402Z,77.30
2022-08-04T01:13:59.172Z,77.90
2022-08-04T01:16:53.621Z,78.40
2022-08-04T01:20:02.934Z,78.90
2022-08-04T01:23:30.320Z,79.20
2022-08-04T01:29:12.395Z,80.20
2022-08-04T01:32:05.863Z,80.60
2022-08-04T01:35:00.536Z,81.40
2022-08-04T01:37:55.434Z,81.90
2022-08-04T01:40:47.737Z,81.70
2022-08-04T01:43:42.145Z,81.30
2022-08-04T01:46:34.961Z,81.10
2022-08-04T01:49:28.624Z,81.00
2022-08-04T01:52:22.287Z,81.50
2022-08-04T01:55:15.880Z,83.20
2022-08-04T02:00:57.216Z,84.50
2022-08-04T02:04:18.173Z,85.90
2022-08-04T02:06:44.532Z,86.00
2022-08-04T02:09:54.454Z,86.80
2022-08-04T02:12:47.991Z,88.30
2022-08-04T02:15:44.250Z,88.40
2022-08-04T02:21:24.377Z,90.30
2022-08-04T02:24:18.805Z,90.40
2022-08-04T02:27:12.250Z,90.50
2022-08-04T02:30:06.371Z,90.50
2022-08-04T02:33:00.653Z,90.90
2022-08-04T02:41:24.390Z,92.60
2022-08-04T02:44:17.595Z,93.10
2022-08-04T02:47:10.516Z,93.30
2022-08-04T02:50:02.495Z,93.40
2022-08-04T02:52:55.669Z,93.90
2022-08-04T02:55:50.481Z,94.20
2022-08-04T02:58:43.832Z,93.90
2022-08-04T03:01:35.805Z,93.90
2022-08-04T03:07:34.674Z,96.10
2022-08-04T03:10:51.673Z,97.10
2022-08-04T03:14:01.181Z,97.90
2022-08-04T03:17:52.415Z,98.10
2022-08-04T03:21:18.439Z,98.20
2022-08-04T03:24:46.649Z,99.00
2022-08-04T03:28:17.416Z,99.50
2022-08-04T03:31:16.059Z,99.20
2022-08-04T03:34:20.023Z,98.90
2022-08-04T03:37:49.029Z,99.20
2022-08-04T03:44:00.720Z,99.90
2022-08-04T03:47:17.122Z,99.90
2022-08-04T03:50:44.329Z,99.90
2022-08-04T03:53:47.955Z,99.90
2022-08-04T03:56:58.297Z,99.70
2022-08-04T04:03:28.713Z,99.90
2022-08-04T04:06:38.520Z,99.90
2022-08-04T04:10:01.215Z,99.90
2022-08-04T04:19:31.802Z,99.90
2022-08-04T04:22:38.579Z,99.90
2022-08-04T04:25:39.333Z,99.90
2022-08-04T04:28:45.567Z,99.90
2022-08-04T04:31:50.454Z,99.90
2022-08-04T04:34:50.881Z,99.90
2022-08-04T04:37:54.796Z,99.90
2022-08-04T04:40:51.490Z,99.90
2022-08-04T04:44:30.566Z,99.90
2022-08-04T04:48:01.726Z,99.90
2022-08-04T04:50:18.344Z,99.90
2022-08-04T04:53:14.627Z,99.90
2022-08-04T04:56:09.840Z,99.90
2022-08-04T04:59:02.669Z,99.90
2022-08-04T05:02:26.493Z,99.90
2022-08-04T05:05:32.129Z,99.90
2022-08-04T05:08:44.659Z,99.90
2022-08-04T05:11:57.410Z,99.90
2022-08-04T05:14:51.372Z,99.90
2022-08-04T05:17:45.121Z,99.90
2022-08-04T05:20:39.923Z,99.90
2022-08-04T05:23:40.305Z,99.90
2022-08-04T05:26:35.712Z,99.90
2022-08-04T05:29:32.080Z,99.90
2022-08-04T05:32:31.581Z,99.90
2022-08-04T05:35:50.469Z,99.90
2022-08-04T05:38:23.833Z,99.90
2022-08-04T05:41:17.116Z,99.90
2022-08-04T05:44:12.932Z,99.90
2022-08-04T05:47:05.133Z,99.90
2022-08-04T05:50:02.209Z,99.90
2022-08-04T05:52:52.359Z,99.90
2022-08-04T05:55:48.994Z,99.90
2022-08-04T05:58:40.652Z,99.90
2022-08-04T06:01:32.759Z,99.90
2022-08-04T06:04:27.679Z,99.90
2022-08-04T06:07:19.593Z,99.90
2022-08-04T06:10:12.615Z,99.90
2022-08-04T06:13:06.840Z,99.90
2022-08-04T06:15:59.910Z,99.90
2022-08-04T06:20:00.402Z,99.90
2022-08-04T06:21:59.418Z,99.90
2022-08-04T06:24:52.517Z,99.90
2022-08-04T06:27:45.328Z,99.90
2022-08-04T06:30:37.585Z,99.90
2022-08-04T06:36:09.041Z,99.90
2022-08-04T06:39:01.774Z,99.90
2022-08-04T06:42:02.467Z,99.90
2022-08-04T06:47:31.436Z,99.90
2022-08-04T06:51:25.682Z,99.90
2022-08-04T06:53:20.793Z,99.90
2022-08-04T06:56:15.109Z,99.90
2022-08-04T06:59:07.250Z,99.90
2022-08-04T07:02:00.375Z,99.90
2022-08-04T07:04:52.189Z,99.90
2022-08-04T07:07:57.697Z,99.90
2022-08-04T07:10:38.570Z,99.90
2022-08-04T07:13:31.873Z,99.90
2022-08-04T07:16:31.341Z,99.90
2022-08-04T07:19:22.568Z,99.90
2022-08-04T07:22:17.544Z,99.90
2022-08-04T07:25:13.094Z,99.90
2022-08-04T07:30:47.057Z,99.90
2022-08-04T07:33:39.484Z,99.90
2022-08-04T07:36:34.817Z,99.90
2022-08-04T07:42:03.557Z,99.90
2022-08-04T07:47:40.449Z,99.90
2022-08-04T07:50:34.167Z,99.90
2022-08-04T07:53:55.011Z,99.90
2022-08-04T07:56:29.286Z,99.60
2022-08-04T07:59:21.264Z,99.50
2022-08-04T08:02:14.848Z,99.40
2022-08-04T08:05:09.159Z,99.20
2022-08-04T08:08:00.737Z,98.80
2022-08-04T08:10:51.913Z,98.60
2022-08-04T08:13:45.714Z,98.40
2022-08-04T08:16:37.897Z,98.30
2022-08-04T08:19:31.665Z,98.10
2022-08-04T08:22:23.185Z,98.00
2022-08-04T08:25:15.080Z,97.80
2022-08-04T08:30:45.661Z,97.20
2022-08-04T08:33:38.975Z,97.10
2022-08-04T08:36:33.326Z,96.80
2022-08-04T08:39:27.380Z,96.20
2022-08-04T08:42:46.534Z,96.00
2022-08-04T08:52:01.342Z,95.10
2022-08-04T09:00:49.298Z,94.60
2022-08-04T09:06:52.214Z,93.90
2022-08-04T09:13:01.887Z,93.80
2022-08-04T09:16:04.953Z,93.70
2022-08-04T09:18:58.989Z,93.20
2022-08-04T09:21:58.053Z,92.80
2022-08-04T09:24:54.327Z,93.00
2022-08-04T09:27:55.266Z,92.90
2022-08-04T09:30:55.588Z,92.70
2022-08-04T09:33:51.776Z,92.50
2022-08-04T09:36:45.859Z,92.10
2022-08-04T09:39:41.054Z,91.70
2022-08-04T09:42:40.217Z,91.60
2022-08-04T09:45:44.333Z,91.70
2022-08-04T09:48:43.461Z,91.40
2022-08-04T09:51:57.910Z,91.50
2022-08-04T09:54:54.079Z,91.70
2022-08-04T09:57:54.059Z,91.20
2022-08-04T10:00:57.667Z,91.20
2022-08-04T10:07:00.078Z,91.60
2022-08-04T10:09:56.138Z,92.00
2022-08-04T10:12:55.081Z,92.10
2022-08-04T10:16:02.346Z,91.70
2022-08-04T10:19:08.004Z,92.10
2022-08-04T10:22:30.752Z,91.70
2022-08-04T10:26:03.599Z,91.40
2022-08-04T10:30:55.501Z,91.10
2022-08-04T10:33:51.198Z,90.50
2022-08-04T10:36:48.486Z,90.20
2022-08-04T10:42:38.322Z,89.30
2022-08-04T10:45:40.280Z,87.80
2022-08-04T10:51:20.108Z,86.30
2022-08-04T10:54:16.384Z,86.20
2022-08-04T10:57:12.182Z,85.40
2022-08-04T11:00:06.743Z,84.40
2022-08-04T11:03:02.003Z,84.10
2022-08-04T11:08:37.120Z,80.60
2022-08-04T11:12:00.527Z,80.10
2022-08-04T11:14:39.073Z,79.10
2022-08-04T11:17:41.507Z,77.80
2022-08-04T11:20:47.447Z,77.90
2022-08-04T11:23:55.545Z,76.90
2022-08-04T11:27:09.355Z,76.30
2022-08-04T11:30:27.299Z,74.90
2022-08-04T11:36:10.589Z,72.50
2022-08-04T11:41:57.729Z,71.80
2022-08-04T11:44:56.012Z,71.20
2022-08-04T11:47:50.538Z,70.70
2022-08-04T11:50:45.175Z,70.40
2022-08-04T12:02:44.904Z,69.10
2022-08-04T12:05:38.975Z,68.70
2022-08-04T12:08:37.070Z,69.00
2022-08-04T12:11:59.018Z,68.70
2022-08-04T12:15:16.338Z,68.20
2022-08-04T12:18:26.419Z,68.90
2022-08-04T12:21:38.601Z,68.70
2022-08-04T12:24:38.191Z,68.10
2022-08-04T12:27:33.799Z,67.10
2022-08-04T12:30:59.488Z,66.90
2022-08-04T12:36:10.563Z,65.10
2022-08-04T12:41:46.987Z,64.20
2022-08-04T12:44:48.190Z,64.30
2022-08-04T12:47:41.885Z,63.10
2022-08-04T12:50:35.101Z,62.80
2022-08-04T12:56:06.953Z,61.40
2022-08-04T13:02:09.505Z,60.80
2022-08-04T13:05:02.171Z,60.70
2022-08-04T13:07:55.232Z,60.10
2022-08-04T13:10:52.021Z,59.80
2022-08-04T13:14:10.955Z,59.90
2022-08-04T13:16:54.692Z,59.60
2022-08-04T13:20:04.249Z,59.40
2022-08-04T13:23:01.622Z,59.60
2022-08-04T13:28:50.858Z,59.30
2022-08-04T13:30:24.963Z,59.70
2022-08-04T13:31:44.845Z,59.30
2022-08-04T13:37:20.989Z,59.30
2022-08-04T13:40:14.680Z,59.10
2022-08-04T13:45:47.886Z,58.90
2022-08-04T13:48:42.237Z,59.00
2022-08-04T13:51:57.584Z,58.80
2022-08-04T13:54:33.520Z,59.00
2022-08-04T13:57:41.355Z,59.50
2022-08-04T14:01:02.491Z,59.30
2022-08-04T14:06:36.226Z,59.30
2022-08-04T14:09:34.797Z,59.90
2022-08-04T14:12:38.666Z,60.40
2022-08-04T14:16:02.949Z,61.30
2022-08-04T14:18:28.547Z,61.60
2022-08-04T14:21:21.019Z,62.00
2022-08-04T14:24:12.153Z,62.80
2022-08-04T14:27:04.171Z,64.00
2022-08-04T14:29:55.350Z,65.10
2022-08-04T14:32:58.585Z,66.00
2022-08-04T14:36:01.628Z,66.50
2022-08-04T14:38:58.402Z,67.20
2022-08-04T14:41:50.018Z,67.40
2022-08-04T14:44:58.638Z,67.90
2022-08-04T14:48:03.523Z,67.90
2022-08-04T14:50:55.212Z,66.70
2022-08-04T14:56:46.053Z,66.50
2022-08-04T14:59:18.061Z,66.80
2022-08-04T15:02:10.644Z,67.30
2022-08-04T15:06:03.171Z,66.80
2022-08-04T15:07:58.413Z,66.80
2022-08-04T15:10:49.135Z,66.80
2022-08-04T15:13:40.687Z,67.50
2022-08-04T15:16:33.733Z,66.90
2022-08-04T15:19:25.405Z,67.00
2022-08-04T15:22:17.765Z,67.90
2022-08-04T15:25:15.499Z,67.80
2022-08-04T15:28:06.456Z,67.80
2022-08-04T15:31:00.266Z,67.40
2022-08-04T15:33:52.929Z,67.30
2022-08-04T15:36:56.236Z,66.90
2022-08-04T15:39:49.439Z,66.90
2022-08-04T15:46:28.804Z,65.30
2022-08-04T15:48:28.541Z,65.90
2022-08-04T15:51:30.518Z,65.80
2022-08-04T15:54:29.260Z,65.50
2022-08-04T15:57:22.296Z,65.50
2022-08-04T16:00:15.563Z,65.30
2022-08-04T16:03:12.022Z,64.80
2022-08-04T16:06:04.705Z,64.50
2022-08-04T16:09:06.279Z,62.40
2022-08-04T16:11:58.053Z,59.90
2022-08-04T16:14:49.333Z,60.00
2022-08-04T16:17:45.911Z,61.50
2022-08-04T16:20:59.404Z,63.20
2022-08-04T16:24:13.542Z,64.10
2022-08-04T16:27:06.509Z,65.10
2022-08-04T16:32:44.801Z,65.90
2022-08-04T16:35:42.456Z,66.30
2022-08-04T16:41:13.423Z,66.50
2022-08-04T16:44:52.234Z,66.90
2022-08-04T16:47:48.593Z,67.40
2022-08-04T16:50:50.442Z,68.00
2022-08-04T16:56:23.084Z,69.20
2022-08-04T16:59:15.538Z,68.90
2022-08-04T17:02:09.882Z,67.70
2022-08-04T17:05:06.955Z,68.40
2022-08-04T17:08:28.145Z,69.40
2022-08-04T17:10:50.143Z,70.30
2022-08-04T17:14:01.982Z,70.90
2022-08-04T17:16:40.881Z,71.10
2022-08-04T17:19:33.701Z,71.10
2022-08-04T17:22:26.600Z,70.20
2022-08-04T17:25:17.593Z,68.40
2022-08-04T17:28:24.749Z,67.00
2022-08-04T17:31:05.545Z,65.20
2022-08-04T17:34:00.090Z,65.20
2022-08-04T17:36:51.214Z,65.10
2022-08-04T17:39:44.051Z,65.50
2022-08-04T17:42:39.638Z,66.00
2022-08-04T17:45:53.638Z,65.70
2022-08-04T17:48:29.839Z,65.50
2022-08-04T17:51:22.306Z,66.20
2022-08-04T17:54:16.230Z,66.00
2022-08-04T17:57:20.176Z,66.00
2022-08-04T18:00:23.154Z,65.90
2022-08-04T18:03:30.045Z,66.30
2022-08-04T18:06:19.556Z,66.60
2022-08-04T18:09:22.594Z,66.90
2022-08-04T18:12:05.125Z,66.60
2022-08-04T18:14:59.898Z,66.70
2022-08-04T18:18:19.792Z,66.80
2022-08-04T18:20:44.841Z,67.10
2022-08-04T18:23:50.404Z,67.00
2022-08-04T18:26:30.522Z,67.30
2022-08-04T18:29:31.925Z,67.70
2022-08-04T18:32:15.851Z,68.30
2022-08-04T18:35:09.980Z,68.80
2022-08-04T18:38:07.116Z,69.20
2022-08-04T18:41:03.684Z,69.50
2022-08-04T18:43:57.152Z,69.50
2022-08-04T18:46:56.842Z,69.90
2022-08-04T18:51:00.230Z,69.90
2022-08-04T18:52:34.620Z,70.00
2022-08-04T18:55:55.548Z,70.30
2022-08-04T18:58:27.582Z,70.50
2022-08-04T19:01:14.342Z,71.00
2022-08-04T19:04:32.874Z,71.20
2022-08-04T19:09:57.989Z,71.40
2022-08-04T19:12:48.747Z,71.50
2022-08-04T19:15:42.424Z,72.10
2022-08-04T19:18:36.509Z,72.30
2022-08-04T19:22:01.188Z,72.70
2022-08-04T19:24:32.270Z,72.90
2022-08-04T19:27:13.544Z,72.80
2022-08-04T19:30:08.100Z,73.30
2022-08-04T19:33:01.123Z,73.90
2022-08-04T19:35:52.458Z,74.00
2022-08-04T19:38:44.369Z,74.40
2022-08-04T19:42:05.616Z,74.60
2022-08-04T19:44:30.048Z,74.60
2022-08-04T19:48:16.059Z,74.90
2022-08-04T19:50:15.505Z,74.80
2022-08-04T19:53:19.081Z,75.20
2022-08-04T19:55:59.746Z,75.60
2022-08-04T19:58:51.900Z,75.70
2022-08-04T20:01:45.571Z,75.90
2022-08-04T20:04:36.141Z,76.20
2022-08-04T20:07:30.431Z,76.70
2022-08-04T20:10:23.714Z,77.10
2022-08-04T20:13:15.896Z,77.50
2022-08-04T20:16:28.213Z,77.70
2022-08-04T20:19:04.054Z,77.80
2022-08-04T20:21:58.600Z,78.30
2022-08-04T20:25:00.409Z,78.60
2022-08-04T20:27:59.393Z,78.80
2022-08-04T20:30:46.713Z,78.70
2022-08-04T20:33:40.918Z,79.10
2022-08-04T20:36:33.651Z,79.00
2022-08-04T20:39:26.750Z,79.30
2022-08-04T20:42:27.437Z,79.40
2022-08-04T20:45:16.113Z,79.50
2022-08-04T20:48:08.284Z,79.70
2022-08-04T20:51:03.116Z,80.20
2022-08-04T20:53:54.574Z,80.50
2022-08-04T20:56:51.218Z,80.70
2022-08-04T20:59:39.269Z,80.90
2022-08-04T21:02:31.859Z,81.00
2022-08-04T21:05:23.368Z,81.30
2022-08-04T21:08:16.261Z,81.70
2022-08-04T21:11:09.037Z,82.00
2022-08-04T21:14:00.320Z,82.30
2022-08-04T21:16:55.279Z,83.00
2022-08-04T21:19:43.434Z,83.30
2022-08-04T21:22:35.950Z,83.40
2022-08-04T21:25:28.811Z,83.50
2022-08-04T21:28:20.790Z,83.80
2022-08-04T21:31:22.277Z,83.50
2022-08-04T21:34:05.906Z,83.50
2022-08-04T21:36:57.246Z,83.80
2022-08-04T21:39:59.134Z,83.90
2022-08-04T21:42:42.548Z,84.30
2022-08-04T21:45:36.160Z,84.30
2022-08-04T21:48:27.282Z,85.00
2022-08-04T21:51:58.694Z,85.10
2022-08-04T21:54:17.217Z,85.40
2022-08-04T21:57:07.546Z,85.50
2022-08-04T22:00:00.129Z,85.70
2022-08-04T22:02:53.017Z,85.80
2022-08-04T22:05:45.319Z,86.10
2022-08-04T22:08:36.528Z,86.30
2022-08-04T22:11:48.310Z,86.50
2022-08-04T22:14:29.389Z,86.80
2022-08-04T22:17:18.194Z,87.30
2022-08-04T22:20:28.127Z,87.80
2022-08-04T22:23:16.630Z,88.00
2022-08-04T22:26:03.456Z,88.50
2022-08-04T22:28:55.362Z,88.70
2022-08-04T22:31:55.593Z,88.90
2022-08-04T22:34:45.482Z,89.60
2022-08-04T22:37:35.908Z,89.50
2022-08-04T22:40:26.352Z,89.50
2022-08-04T22:43:31.374Z,90.00
2022-08-04T22:46:15.393Z,90.00
2022-08-04T22:49:07.695Z,90.10
2022-08-04T22:51:59.132Z,90.30
2022-08-04T22:54:50.585Z,90.50
2022-08-04T22:57:43.465Z,90.60
2022-08-04T23:00:38.135Z,90.80
2022-08-04T23:03:37.847Z,90.90
2022-08-04T23:06:24.526Z,91.20
2022-08-04T23:09:16.368Z,91.10
2022-08-04T23:12:24.269Z,91.20
2022-08-04T23:15:01.442Z,91.30
2022-08-04T23:17:53.420Z,91.40
2022-08-04T23:20:44.949Z,91.70
2022-08-04T23:23:36.303Z,91.80
2022-08-04T23:26:29.023Z,91.80
2022-08-04T23:29:19.911Z,92.10
2022-08-04T23:32:11.149Z,92.20
2022-08-04T23:35:04.346Z,92.40
2022-08-04T23:37:57.664Z,92.30
2022-08-04T23:40:49.933Z,92.40
2022-08-04T23:43:55.311Z,92.50
2022-08-04T23:46:34.424Z,92.70
2022-08-04T23:49:44.305Z,92.80
2022-08-04T23:52:27.593Z,93.00
2022-08-04T23:55:15.769Z,93.50
2022-08-04T23:58:18.585Z,93.60
